Aviation Digital Data Service (ADDS)

Output produced by TAFs form (1509 UTC 21 October 2014)
found at http://aviationweather.gov/adds/tafs/
 
KROW 211339Z 2114/2212 34003KT P6SM VCSH FEW025 BKN045 
     FM211700 16006KT P6SM VCSH OVC050 
     FM212000 16010KT P6SM VCTS OVC050CB 
     FM212300 16009KT P6SM BKN050 
     FM220500 20004KT P6SM BKN025 
     FM221000 VRB03KT 4SM BR OVC015